Flight Track Log - Related Links

Times and Time Zones

All times are in EDT time to prevent confusion due to time zone crossing. See the SWA3408 flight status page for this flight to view local times or setup timezone preferences in your user account.

Time Position Orientation Groundspeed Altitude Reporting Facility
EDT Latitude Longitude Course Direction KTS MPH feet Rate Location/Type
Sun 07:37:58 AM 41.7833 -87.6833 90° East 175 201 3,500  Level Chicago TRACON
Sun 07:39:01 AM 41.8003 -87.6178 71° East 234 269 5,700 3,145 Climbing Chicago Center
Sun 07:40:02 AM 41.8297 -87.5178 68° East 284 327 10,000 4,279 Climbing Chicago Center
Sun 07:41:03 AM 41.8422 -87.4058 81° East 306 352 14,400 3,639 Climbing Chicago Center
Sun 07:42:04 AM 41.8208 -87.2803 103° East 342 394 17,400 3,223 Climbing Chicago Center
Sun 07:43:00 AM 41.7500 -86.8744 90° East  Level FlightAware Approximate
Sun 07:43:04 AM 41.8150 -87.1403 93° East 372 428 20,900  Level Chicago Center
Sun 07:44:05 AM 41.8069 -86.9944 94° East 389 448 24,600 3,098 Climbing Chicago Center
Sun 07:45:06 AM 41.7997 -86.8414 94° East 408 470 27,200 2,705 Climbing Chicago Center
Sun 07:46:07 AM 41.7892 -86.6586 94° East 445 512 30,100 2,557 Climbing Chicago Center
Sun 07:47:08 AM 41.7781 -86.4853 95° East 465 535 32,400 1,426 Climbing Chicago Center
Sun 07:48:09 AM 41.7683 -86.3078 94° East 477 549 33,000 298 Climbing Chicago Center
Sun 07:49:09 AM 41.7572 -86.1319 95° East 475 547 33,000 496 Level Chicago Center
Sun 07:50:10 AM 41.7461 -85.9544 95° East 477 549 34,000 1,475 Climbing Chicago Center
Sun 07:51:11 AM 41.7350 -85.7894 95° East 477 549 36,000 2,164 Climbing Chicago Center
Sun 07:52:12 AM 41.7211 -85.5781 95° East 477 549 38,400 2,115 Climbing Chicago Center
Sun 07:53:13 AM 41.7097 -85.4017 95° East 478 550 40,300 1,279 Climbing Chicago Center
Sun 07:54:14 AM 41.6961 -85.2275 96° East 475 547 41,000 344 Climbing Chicago Center
Sun 07:55:15 AM 41.6831 -85.0519 96° East 475 547 41,000  Level Chicago Center
Sun 07:56:16 AM 41.6736 -84.8783 94° East 486 559 41,000  Level Chicago Center
Sun 07:57:16 AM 41.6622 -84.7025 95° East 479 551 41,000  Level Chicago Center
Sun 07:58:17 AM 41.6553 -84.5256 93° East 477 549 41,000  Level Chicago Center
Sun 07:59:18 AM 41.6464 -84.3497 94° East 474 545 41,000  Level Chicago Center
Sun 08:00:19 AM 41.6147 -84.1797 104° East 471 542 41,000  Level Chicago Center
Sun 08:01:20 AM 41.5475 -84.0303 121° Southeast 469 540 41,000  Level Chicago Center
Sun 08:02:21 AM 41.4792 -83.8792 121° Southeast 473 544 41,000  Level Chicago Center
Sun 08:03:22 AM 41.3981 -83.7000 121° Southeast 472 543 41,000  Level Chicago Center
Sun 08:04:23 AM 41.3328 -83.5483 120° Southeast 473 544 41,000  Level Chicago Center
Sun 08:05:29 AM 41.2686 -83.4061 121° Southeast 466 536 41,000  Level Indianapolis Center
Sun 08:06:30 AM 41.2003 -83.2578 121° Southeast 467 537 41,000  Level Indianapolis Center
Sun 08:07:31 AM 41.1217 -83.0864 121° Southeast 464 534 41,000  Level Indianapolis Center
Sun 08:08:28 AM 41.0636 -82.9653 122° Southeast 462 532 41,000  Level Cleveland Center
Sun 08:10:34 AM 40.9186 -82.6467 121° Southeast 466 536 41,000  Level Indianapolis Center
Sun 08:11:35 AM 40.8494 -82.4997 122° Southeast 468 539 41,000  Level Indianapolis Center
Sun 08:12:36 AM 40.7806 -82.3539 122° Southeast 467 537 41,000  Level Indianapolis Center
Sun 08:13:38 AM 40.7117 -82.2089 122° Southeast 467 537 41,000  Level Indianapolis Center
Sun 08:14:04 AM 40.6756 -82.1381 124° Southeast 471 542 41,000  Level Cleveland Center
Sun 08:15:04 AM 40.6067 -81.9917 122° Southeast 476 548 41,000  Level Cleveland Center
Sun 08:16:04 AM 40.5375 -81.8453 122° Southeast 476 548 41,000  Level Cleveland Center
Sun 08:17:04 AM 40.4764 -81.7186 122° Southeast 471 542 41,000  Level Cleveland Center
Sun 08:18:04 AM 40.4047 -81.5756 123° Southeast 466 536 41,000  Level Cleveland Center
Sun 08:19:04 AM 40.3392 -81.4328 121° Southeast 461 531 41,000  Level Cleveland Center
Sun 08:20:04 AM 40.2631 -81.2714 122° Southeast 461 531 41,000  Level Cleveland Center
Sun 08:21:04 AM 40.1950 -81.1294 122° Southeast 461 531 41,000  Level Cleveland Center
Sun 08:22:04 AM 40.1247 -80.9875 123° Southeast 461 531 41,000  Level Cleveland Center
Sun 08:23:04 AM 40.0544 -80.8461 123° Southeast 461 531 41,000  Level Cleveland Center
Sun 08:24:04 AM 39.9858 -80.7106 123° Southeast 461 531 41,000 -100 Level Cleveland Center
Sun 08:25:04 AM 39.9169 -80.5694 122° Southeast 461 531 40,800 -600 Descending Cleveland Center
Sun 08:26:04 AM 39.8461 -80.4289 123° Southeast 461 531 39,800 -1,000 Descending Cleveland Center
Sun 08:27:04 AM 39.7769 -80.2886 123° Southeast 461 531 38,800 -950 Descending Cleveland Center
Sun 08:28:04 AM 39.7078 -80.1486 123° Southeast 461 531 37,900 -1,583 Descending Cleveland Center
Sun 08:29:28 AM 39.6056 -79.9525 124° Southeast 457 526 35,000 -2,708 Descending Washington Center
Sun 08:30:28 AM 39.5444 -79.7953 117° Southeast 470 541 31,400 -3,250 Descending Washington Center
Sun 08:31:28 AM 39.5150 -79.6214 102° East 476 548 28,500 -2,200 Descending Washington Center
Sun 08:32:28 AM 39.4869 -79.4639 103° East 471 542 27,000 -750 Descending Washington Center
Sun 08:33:28 AM 39.4606 -79.3064 102° East 455 524 27,000 -650 Level Washington Center
Sun 08:34:28 AM 39.4319 -79.1492 103° East 450 518 25,700 -1,950 Descending Washington Center
Sun 08:35:28 AM 39.4028 -79.0028 104° East 436 502 23,100 -2,500 Descending Washington Center
Sun 08:36:28 AM 39.3778 -78.8592 103° East 416 479 20,700 -2,300 Descending Washington Center
Sun 08:37:28 AM 39.3519 -78.7239 104° East 404 465 18,500 -2,000 Descending Washington Center
Sun 08:38:28 AM 39.3283 -78.5939 103° East 386 444 16,700 -2,150 Descending Washington Center
Sun 08:39:28 AM 39.3044 -78.4617 103° East 380 437 14,200 -2,400 Descending Washington Center
Sun 08:40:28 AM 39.2675 -78.3422 112° Southeast 375 432 11,900 -1,600 Descending Washington Center
Sun 08:41:28 AM 39.2006 -78.2647 138° Southeast 329 379 11,000 -893 Descending Washington Center
Sun 08:42:29 AM 39.1314 -78.1817 137° Southeast 329 379 10,100 -500 Descending Washington Center
Sun 08:43:28 AM 39.0600 -78.1125 143° Southeast 329 379 10,000 -353 Descending Washington Center
Sun 08:44:28 AM 38.9864 -78.0483 146° Southeast 329 379 9,400 -1,000 Descending Washington Center
Sun 08:45:28 AM 38.9164 -77.9956 150° Southeast 312 359 8,000 -1,550 Descending Washington Center
Sun 08:46:28 AM 38.8508 -77.9372 145° Southeast 297 342 6,300 -1,450 Descending Washington Center
Sun 08:47:28 AM 38.7853 -77.8847 148° Southeast 286 329 5,100 -650 Descending Washington Center
Sun 08:48:28 AM 38.7236 -77.8375 149° Southeast 281 323 5,000 -338 Descending Washington Center
Sun 08:50:43 AM 38.6833 -77.6667 107° East 242 278 4,000 -308 Descending Potomac TRACON
Sun 08:51:43 AM 38.7000 -77.5833 76° East 214 246 4,000  Level Potomac TRACON
Sun 08:52:37 AM 38.7000 -77.5167 90° East 196 226 4,000 -53 Level Potomac TRACON
Sun 08:53:37 AM 38.7333 -77.4833 38° Northeast 172 198 3,900 -450 Descending Potomac TRACON
Sun 08:54:37 AM 38.7833 -77.4667 15° North 172 198 3,100 -626 Descending Potomac TRACON
Sun 08:55:32 AM 38.8167 -77.4667 360° North 168 193 2,700 -730 Descending Potomac TRACON
Sun 08:56:32 AM 38.8667 -77.4667 360° North 160 184 1,700 -800 Descending Potomac TRACON
Sun 08:57:32 AM 38.9000 -77.4667 360° North 109 125 1,100 -600 Descending Potomac TRACON

Login

Don't have an account? Register now (free) for customized features, flight alerts, and more!